Time;durP1;ratioP1;P1;durP2;ratioP2;P2;SDS_P1;SDS_P2;PMS_P1;PMS_P2;Temp;Humidity;BMP_temperature;BMP_pressure;BME280_temperature;BME280_humidity;BME280_pressure;Samples;Min_cycle;Max_cycle;Signal;HPM_P1;HPM_P2
2021/12/06 00:00:17;;;;;;;;;4.50;1.00;;;;;;;;5000810;28;62274;-80
2021/12/06 00:02:43;;;;;;;;;5.00;2.75;;;;;;;;5001022;28;61827;-80
2021/12/06 00:05:09;;;;;;;;;2.00;2.00;;;;;;;;5000330;28;61978;-80
2021/12/06 00:07:34;;;;;;;;;2.00;2.00;;;;;;;;5002604;28;62183;-80
2021/12/06 00:09:59;;;;;;;;;2.00;0.00;;;;;;;;5004616;28;61910;-80
2021/12/06 00:12:25;;;;;;;;;6.00;4.00;;;;;;;;4987065;28;61880;-80
2021/12/06 00:14:50;;;;;;;;;6.00;2.00;;;;;;;;5003834;28;61882;-80
2021/12/06 00:17:16;;;;;;;;;2.25;2.25;;;;;;;;4986408;28;61698;-80
2021/12/06 00:19:42;;;;;;;;;2.75;0.50;;;;;;;;5004657;28;61818;-80
2021/12/06 00:22:09;;;;;;;;;5.00;2.25;;;;;;;;4986432;28;62152;-80
2021/12/06 00:24:35;;;;;;;;;2.00;2.00;;;;;;;;5003926;28;61841;-80
2021/12/06 00:27:01;;;;;;;;;3.00;2.00;;;;;;;;5004212;28;62018;-80
2021/12/06 00:29:26;;;;;;;;;3.50;3.00;;;;;;;;5004327;28;61891;-81
2021/12/06 00:31:52;;;;;;;;;3.00;2.25;;;;;;;;4986778;28;62155;-80
2021/12/06 00:34:18;;;;;;;;;3.00;3.00;;;;;;;;5003372;28;62897;-80
2021/12/06 00:36:53;;;;;;;;;3.00;2.75;;;;;;;;5004044;28;61859;-80
2021/12/06 00:39:19;;;;;;;;;5.00;3.00;;;;;;;;5004231;28;61624;-80
2021/12/06 00:41:45;;;;;;;;;3.00;3.00;;;;;;;;4986715;28;61825;-80
2021/12/06 00:44:12;;;;;;;;;5.25;4.00;;;;;;;;5003375;28;62179;-80
2021/12/06 00:46:38;;;;;;;;;6.50;5.00;;;;;;;;5003971;28;61897;-80
2021/12/06 00:49:03;;;;;;;;;6.00;4.50;;;;;;;;5003690;28;61795;-80
2021/12/06 00:51:29;;;;;;;;;3.00;2.00;;;;;;;;4986216;28;61795;-80
2021/12/06 00:53:54;;;;;;;;;5.00;2.50;;;;;;;;5003351;28;61784;-80
2021/12/06 00:56:19;;;;;;;;;8.50;3.00;;;;;;;;4985873;28;61908;-80
2021/12/06 00:58:45;;;;;;;;;3.00;3.00;;;;;;;;5003734;28;62009;-80
2021/12/06 01:01:10;;;;;;;;;5.00;5.00;;;;;;;;5003570;28;61811;-80
2021/12/06 01:03:37;;;;;;;;;1.00;1.00;;;;;;;;5003119;28;61925;-80
2021/12/06 01:06:03;;;;;;;;;5.00;5.00;;;;;;;;5003709;28;61932;-80
2021/12/06 01:08:29;;;;;;;;;6.50;5.00;;;;;;;;5003935;28;61874;-80
2021/12/06 01:10:54;;;;;;;;;5.00;3.00;;;;;;;;4986145;28;61868;-80
2021/12/06 01:13:20;;;;;;;;;4.00;4.00;;;;;;;;5003125;28;61840;-80
2021/12/06 01:15:45;;;;;;;;;2.00;2.00;;;;;;;;4985710;28;61772;-80
2021/12/06 01:18:12;;;;;;;;;2.25;2.25;;;;;;;;4984986;28;61757;-80
2021/12/06 01:20:51;;;;;;;;;2.25;1.50;;;;;;;;4985425;28;61922;-80
2021/12/06 01:23:21;;;;;;;;;5.00;3.00;;;;;;;;5002887;28;61870;-80
2021/12/06 01:26:07;;;;;;;;;;;;;;;;;;;;;
2021/12/06 01:28:46;;;;;;;;;5.00;4.50;;;;;;;;5003190;28;61754;-80
2021/12/06 01:41:33;;;;;;;;;5.25;5.00;;;;;;;;5003337;28;61863;-80
2021/12/06 01:44:02;;;;;;;;;7.50;6.00;;;;;;;;5002656;28;63333;-79
2021/12/06 01:46:28;;;;;;;;;9.50;7.00;;;;;;;;4984950;28;61800;-80
2021/12/06 01:48:53;;;;;;;;;8.00;5.25;;;;;;;;5002598;28;62014;-80
2021/12/06 01:51:18;;;;;;;;;10.25;5.75;;;;;;;;4990279;28;61903;-80
2021/12/06 01:53:43;;;;;;;;;5.25;5.25;;;;;;;;4984686;28;63986;-80
2021/12/06 01:56:09;;;;;;;;;4.50;4.50;;;;;;;;5002926;28;61954;-80
2021/12/06 01:58:34;;;;;;;;;4.25;3.00;;;;;;;;4984704;28;61820;-80
2021/12/06 02:00:59;;;;;;;;;8.25;5.75;;;;;;;;4985089;28;62167;-80
2021/12/06 02:03:25;;;;;;;;;6.00;3.50;;;;;;;;5001567;28;62269;-80
2021/12/06 02:05:50;;;;;;;;;5.50;4.50;;;;;;;;4984895;28;62023;-80
2021/12/06 02:08:16;;;;;;;;;6.00;5.75;;;;;;;;4985210;28;61784;-80
2021/12/06 02:10:41;;;;;;;;;7.00;3.00;;;;;;;;4985113;28;61796;-80
2021/12/06 02:13:08;;;;;;;;;5.00;3.00;;;;;;;;5002133;28;62110;-80
2021/12/06 02:18:10;;;;;;;;;5.00;5.00;;;;;;;;5002442;28;61915;-80
2021/12/06 02:20:43;;;;;;;;;11.50;5.25;;;;;;;;5002908;28;61799;-80
2021/12/06 02:23:09;;;;;;;;;6.00;5.00;;;;;;;;4984258;28;65041;-80
2021/12/06 02:25:34;;;;;;;;;5.25;5.25;;;;;;;;4984427;28;62139;-81
2021/12/06 02:27:59;;;;;;;;;17.00;8.25;;;;;;;;5002829;28;61869;-80
2021/12/06 02:30:25;;;;;;;;;7.00;6.00;;;;;;;;5002007;28;61848;-80
2021/12/06 02:32:50;;;;;;;;;6.50;5.50;;;;;;;;4983477;28;64910;-80
2021/12/06 02:35:18;;;;;;;;;10.75;5.50;;;;;;;;4984518;28;62002;-80
2021/12/06 02:37:44;;;;;;;;;6.00;5.25;;;;;;;;4984570;28;61816;-80
2021/12/06 02:40:12;;;;;;;;;5.50;2.75;;;;;;;;5002623;28;61816;-80
2021/12/06 02:42:38;;;;;;;;;9.00;3.00;;;;;;;;4984035;28;64209;-81
2021/12/06 02:45:05;;;;;;;;;6.25;1.75;;;;;;;;5001917;28;61986;-80
2021/12/06 02:47:30;;;;;;;;;11.25;3.50;;;;;;;;4983832;28;61765;-80
2021/12/06 02:50:03;;;;;;;;;11.50;5.75;;;;;;;;4984899;28;61995;-80
2021/12/06 02:52:28;;;;;;;;;6.25;5.00;;;;;;;;4983557;28;63735;-80
2021/12/06 02:54:57;;;;;;;;;3.50;3.50;;;;;;;;4984363;28;61914;-80
2021/12/06 02:57:32;;;;;;;;;4.50;3.00;;;;;;;;5002312;28;61752;-80
2021/12/06 02:59:58;;;;;;;;;8.25;5.00;;;;;;;;4984332;28;61951;-80
2021/12/06 03:02:23;;;;;;;;;12.25;9.50;;;;;;;;5000778;28;63159;-80
2021/12/06 03:04:49;;;;;;;;;6.00;5.00;;;;;;;;4984031;28;61788;-80
2021/12/06 03:07:19;;;;;;;;;9.75;6.00;;;;;;;;5002308;28;61777;-80
2021/12/06 03:09:45;;;;;;;;;11.25;6.75;;;;;;;;5002176;28;62021;-80
2021/12/06 03:12:13;;;;;;;;;7.25;5.00;;;;;;;;4983669;28;64588;-80
2021/12/06 03:14:40;;;;;;;;;5.75;5.00;;;;;;;;4984013;28;61828;-80
2021/12/06 03:17:07;;;;;;;;;7.50;6.75;;;;;;;;4983846;28;61737;-80
2021/12/06 03:19:37;;;;;;;;;5.00;3.00;;;;;;;;5001878;28;62599;-80
2021/12/06 03:22:03;;;;;;;;;6.50;6.00;;;;;;;;4983631;28;63359;-80
2021/12/06 03:24:29;;;;;;;;;9.00;7.00;;;;;;;;5001748;28;61857;-80
2021/12/06 03:26:54;;;;;;;;;8.75;6.25;;;;;;;;5001447;28;62042;-80
2021/12/06 03:29:20;;;;;;;;;9.50;6.75;;;;;;;;4984182;28;62161;-80
2021/12/06 03:31:47;;;;;;;;;5.00;5.00;;;;;;;;4983063;28;63755;-80
2021/12/06 03:34:13;;;;;;;;;6.75;5.00;;;;;;;;5001476;28;61818;-80
2021/12/06 03:36:39;;;;;;;;;6.00;4.00;;;;;;;;5001588;28;61749;-80
2021/12/06 03:39:06;;;;;;;;;9.75;7.00;;;;;;;;4984040;28;62027;-80
2021/12/06 03:41:31;;;;;;;;;5.25;5.00;;;;;;;;4983293;28;63752;-80
2021/12/06 03:43:58;;;;;;;;;6.75;5.25;;;;;;;;5005035;28;62061;-80
2021/12/06 03:46:24;;;;;;;;;7.75;4.00;;;;;;;;5004520;28;61915;-80
2021/12/06 03:48:49;;;;;;;;;5.75;5.25;;;;;;;;5004926;28;62050;-80
2021/12/06 03:51:15;;;;;;;;;8.75;6.25;;;;;;;;5009295;28;63204;-80
2021/12/06 03:53:40;;;;;;;;;6.75;6.50;;;;;;;;5004834;28;62074;-80
2021/12/06 03:56:05;;;;;;;;;10.50;6.25;;;;;;;;5005024;28;61922;-80
2021/12/06 03:58:31;;;;;;;;;7.00;5.50;;;;;;;;4987268;28;61967;-80
2021/12/06 04:00:56;;;;;;;;;6.75;5.75;;;;;;;;4985838;28;64755;-80
2021/12/06 04:03:23;;;;;;;;;11.25;8.75;;;;;;;;5004735;28;61875;-80
2021/12/06 04:05:49;;;;;;;;;7.00;5.50;;;;;;;;5004376;28;61705;-80
2021/12/06 04:08:14;;;;;;;;;7.00;5.50;;;;;;;;5004916;28;61767;-80
2021/12/06 04:10:39;;;;;;;;;8.75;3.00;;;;;;;;4986375;28;63775;-80
2021/12/06 04:13:05;;;;;;;;;10.75;6.75;;;;;;;;4986381;28;62023;-80
2021/12/06 04:15:31;;;;;;;;;6.75;3.00;;;;;;;;4986684;28;61984;-80
2021/12/06 04:17:57;;;;;;;;;9.00;7.00;;;;;;;;5004079;28;62134;-80
2021/12/06 04:20:23;;;;;;;;;9.00;6.25;;;;;;;;5004029;28;64698;-80
2021/12/06 04:22:48;;;;;;;;;8.50;5.00;;;;;;;;5004349;28;61852;-80
2021/12/06 04:25:15;;;;;;;;;5.25;5.25;;;;;;;;4986750;28;62069;-80
2021/12/06 04:27:40;;;;;;;;;4.00;4.00;;;;;;;;5004482;28;61909;-80
2021/12/06 04:30:07;;;;;;;;;5.50;3.50;;;;;;;;5003454;28;62058;-80
2021/12/06 04:32:33;;;;;;;;;9.50;4.50;;;;;;;;5003988;28;61757;-80
2021/12/06 04:34:58;;;;;;;;;7.50;5.25;;;;;;;;4986105;28;62352;-79
2021/12/06 04:37:24;;;;;;;;;6.50;4.50;;;;;;;;4986848;28;61795;-80
2021/12/06 04:39:49;;;;;;;;;7.00;5.75;;;;;;;;5003738;28;61764;-80
2021/12/06 04:42:14;;;;;;;;;6.00;5.50;;;;;;;;5003901;28;62161;-80
2021/12/06 04:44:40;;;;;;;;;5.75;3.50;;;;;;;;5004267;28;61749;-80
2021/12/06 04:47:06;;;;;;;;;7.75;6.00;;;;;;;;5003653;28;61783;-80
2021/12/06 04:49:31;;;;;;;;;6.25;6.00;;;;;;;;5003356;28;61831;-80
2021/12/06 04:51:58;;;;;;;;;6.25;6.25;;;;;;;;4986066;28;61896;-80
2021/12/06 04:54:27;;;;;;;;;6.75;5.75;;;;;;;;5004091;28;61846;-80
2021/12/06 04:56:58;;;;;;;;;13.00;2.75;;;;;;;;5003870;28;62014;-80
2021/12/06 04:59:23;;;;;;;;;5.25;4.50;;;;;;;;4985398;28;64163;-80
2021/12/06 05:01:49;;;;;;;;;9.25;4.00;;;;;;;;5003678;28;61882;-80
2021/12/06 05:04:21;;;;;;;;;8.75;6.00;;;;;;;;5003400;28;62001;-80
2021/12/06 05:06:48;;;;;;;;;8.50;3.00;;;;;;;;4986172;28;61783;-80
2021/12/06 05:09:15;;;;;;;;;5.75;5.75;;;;;;;;5003202;28;61822;-80
2021/12/06 05:11:41;;;;;;;;;5.25;5.25;;;;;;;;5003595;28;61920;-82
2021/12/06 05:14:07;;;;;;;;;6.00;5.25;;;;;;;;4986035;28;61947;-82
2021/12/06 05:16:35;;;;;;;;;5.00;5.00;;;;;;;;5004124;28;61712;-82
2021/12/06 05:19:00;;;;;;;;;7.25;6.25;;;;;;;;4984964;28;63794;-82
2021/12/06 05:21:25;;;;;;;;;10.50;6.00;;;;;;;;5003874;28;61961;-82
2021/12/06 05:23:51;;;;;;;;;5.50;5.00;;;;;;;;4985964;28;62068;-82
2021/12/06 05:26:17;;;;;;;;;7.00;6.00;;;;;;;;5003211;28;62058;-82
2021/12/06 05:28:44;;;;;;;;;6.00;4.50;;;;;;;;5002826;28;61825;-82
2021/12/06 05:31:15;;;;;;;;;6.00;6.00;;;;;;;;5003416;28;61739;-82
2021/12/06 05:33:44;;;;;;;;;2.75;2.75;;;;;;;;5003271;28;61981;-82
2021/12/06 05:36:09;;;;;;;;;6.50;5.00;;;;;;;;5003556;28;62024;-82
2021/12/06 05:38:35;;;;;;;;;4.50;3.00;;;;;;;;4985225;28;63789;-82
2021/12/06 05:41:00;;;;;;;;;10.50;5.00;;;;;;;;5003077;28;62075;-82
2021/12/06 05:43:26;;;;;;;;;5.50;4.50;;;;;;;;4985507;28;61706;-82
2021/12/06 05:45:52;;;;;;;;;9.00;4.50;;;;;;;;4985515;28;61977;-82
2021/12/06 05:48:17;;;;;;;;;9.25;5.00;;;;;;;;4984276;28;64656;-82
2021/12/06 05:50:44;;;;;;;;;6.50;4.50;;;;;;;;5003323;28;61915;-81
2021/12/06 05:53:10;;;;;;;;;6.50;5.25;;;;;;;;4985584;28;61871;-82
2021/12/06 05:55:35;;;;;;;;;8.50;7.25;;;;;;;;4985209;28;61780;-81
2021/12/06 05:58:02;;;;;;;;;8.25;7.00;;;;;;;;5002199;28;61782;-81
2021/12/06 06:00:30;;;;;;;;;20.50;13.25;;;;;;;;4999489;28;61790;-82
2021/12/06 06:02:56;;;;;;;;;16.25;13.75;;;;;;;;4962301;28;61840;-82
2021/12/06 06:05:21;;;;;;;;;19.00;10.00;;;;;;;;4961908;28;62020;-82
2021/12/06 06:07:47;;;;;;;;;11.00;10.50;;;;;;;;4963301;28;63048;-82
2021/12/06 06:10:12;;;;;;;;;10.75;8.75;;;;;;;;4963457;28;61788;-82
2021/12/06 06:12:38;;;;;;;;;11.00;11.00;;;;;;;;4962450;28;62031;-87
2021/12/06 06:15:04;;;;;;;;;13.00;10.75;;;;;;;;4972573;28;61728;-84
2021/12/06 06:17:38;;;;;;;;;4.75;3.50;;;;;;;;4982439;28;62148;-84
2021/12/06 06:20:04;;;;;;;;;10.50;6.25;;;;;;;;4983134;28;61958;-85
2021/12/06 06:22:29;;;;;;;;;10.00;10.00;;;;;;;;4983021;28;61938;-85
2021/12/06 06:24:55;;;;;;;;;10.75;9.00;;;;;;;;4981677;28;61802;-85
2021/12/06 06:27:20;;;;;;;;;9.00;7.00;;;;;;;;4982287;28;63191;-86
2021/12/06 06:29:45;;;;;;;;;6.25;6.25;;;;;;;;4981562;28;61854;-84
2021/12/06 06:32:11;;;;;;;;;11.50;8.75;;;;;;;;4981372;28;61957;-83
2021/12/06 06:34:36;;;;;;;;;18.75;6.75;;;;;;;;4982264;28;61783;-82
2021/12/06 06:37:02;;;;;;;;;7.25;7.25;;;;;;;;4973484;28;63750;-80
2021/12/06 06:39:27;;;;;;;;;14.00;8.75;;;;;;;;4970569;28;61794;-80
2021/12/06 06:41:52;;;;;;;;;6.75;3.50;;;;;;;;4971592;28;61951;-81
2021/12/06 06:44:20;;;;;;;;;8.50;7.50;;;;;;;;4970246;28;62254;-80
2021/12/06 06:46:45;;;;;;;;;9.75;9.75;;;;;;;;4968502;28;64027;-80
2021/12/06 06:49:12;;;;;;;;;6.25;6.25;;;;;;;;4970360;28;62081;-82
2021/12/06 06:51:37;;;;;;;;;7.00;7.00;;;;;;;;4971515;28;62041;-81
2021/12/06 06:54:03;;;;;;;;;11.50;7.50;;;;;;;;4969137;28;61813;-80
2021/12/06 06:56:28;;;;;;;;;7.00;7.00;;;;;;;;4971156;28;61803;-83
2021/12/06 06:58:54;;;;;;;;;9.75;8.00;;;;;;;;4970315;28;61832;-83
2021/12/06 07:01:19;;;;;;;;;11.50;7.75;;;;;;;;4978496;28;62056;-83
2021/12/06 07:03:49;;;;;;;;;7.75;7.00;;;;;;;;4974746;28;62063;-83
2021/12/06 07:06:14;;;;;;;;;6.00;6.00;;;;;;;;4989359;28;62964;-83
2021/12/06 07:08:39;;;;;;;;;11.00;7.50;;;;;;;;4971163;28;61931;-77
2021/12/06 07:11:06;;;;;;;;;10.00;9.50;;;;;;;;4992003;28;62038;-77
2021/12/06 07:13:37;;;;;;;;;9.00;8.00;;;;;;;;4994441;28;61792;-83
2021/12/06 07:16:03;;;;;;;;;12.00;11.00;;;;;;;;4998493;28;63477;-83
2021/12/06 07:18:28;;;;;;;;;54.75;39.25;;;;;;;;5001408;28;61942;-83
2021/12/06 07:20:54;;;;;;;;;45.75;34.50;;;;;;;;4998753;28;62208;-83
2021/12/06 07:23:19;;;;;;;;;50.50;39.50;;;;;;;;4992241;28;61925;-83
2021/12/06 07:25:44;;;;;;;;;57.75;41.50;;;;;;;;4991495;28;62954;-84
2021/12/06 07:28:09;;;;;;;;;55.00;44.75;;;;;;;;4973233;28;61852;-83
2021/12/06 07:30:35;;;;;;;;;70.75;49.75;;;;;;;;4992990;28;61784;-81
2021/12/06 07:33:00;;;;;;;;;65.25;45.00;;;;;;;;4990683;28;61859;-82
2021/12/06 07:35:29;;;;;;;;;29.50;24.00;;;;;;;;4984388;28;61797;-79
2021/12/06 07:37:54;;;;;;;;;26.75;22.50;;;;;;;;4981615;28;62003;-83
2021/12/06 07:40:20;;;;;;;;;26.25;23.50;;;;;;;;4967019;28;61903;-80
2021/12/06 07:42:45;;;;;;;;;15.25;14.50;;;;;;;;4991252;28;62017;-79
2021/12/06 07:45:11;;;;;;;;;22.00;17.50;;;;;;;;4990618;28;62607;-79
2021/12/06 07:47:37;;;;;;;;;13.75;12.75;;;;;;;;4984013;28;61816;-72
2021/12/06 07:50:07;;;;;;;;;11.25;11.25;;;;;;;;4972450;28;61848;-72
2021/12/06 07:52:32;;;;;;;;;16.75;15.50;;;;;;;;4999754;28;61878;-81
2021/12/06 07:54:59;;;;;;;;;16.00;14.75;;;;;;;;4989023;28;62815;-80
2021/12/06 07:57:25;;;;;;;;;14.50;14.00;;;;;;;;4968488;28;61833;-75
2021/12/06 07:59:51;;;;;;;;;17.50;10.00;;;;;;;;4984536;28;61903;-80
2021/12/06 08:02:16;;;;;;;;;17.00;13.50;;;;;;;;4984432;28;61702;-80
2021/12/06 08:04:41;;;;;;;;;19.50;17.75;;;;;;;;4983787;28;61729;-81
2021/12/06 08:07:07;;;;;;;;;20.50;14.00;;;;;;;;4966592;28;62063;-80
2021/12/06 08:09:32;;;;;;;;;14.50;12.00;;;;;;;;4983675;28;61987;-82
2021/12/06 08:11:59;;;;;;;;;8.00;8.00;;;;;;;;4983478;28;61834;-81
2021/12/06 08:14:24;;;;;;;;;12.00;8.25;;;;;;;;4982631;28;61827;-80
2021/12/06 08:16:49;;;;;;;;;6.00;6.00;;;;;;;;4965402;28;61948;-81
2021/12/06 08:19:15;;;;;;;;;16.50;11.25;;;;;;;;4965422;28;62026;-81
2021/12/06 08:21:40;;;;;;;;;12.50;10.75;;;;;;;;4983169;28;62022;-81
2021/12/06 08:24:06;;;;;;;;;12.00;10.50;;;;;;;;4964991;28;64978;-81
2021/12/06 08:26:33;;;;;;;;;14.75;12.50;;;;;;;;4982911;28;61916;-81
2021/12/06 08:29:00;;;;;;;;;13.25;10.25;;;;;;;;4964679;28;61884;-81
2021/12/06 08:31:27;;;;;;;;;13.00;11.75;;;;;;;;4983431;28;61864;-81
2021/12/06 08:33:53;;;;;;;;;7.00;7.00;;;;;;;;4982014;28;62683;-80
2021/12/06 08:36:19;;;;;;;;;12.25;11.00;;;;;;;;4982471;28;61823;-80
2021/12/06 08:38:45;;;;;;;;;15.00;11.00;;;;;;;;4965454;28;62223;-80
2021/12/06 08:41:12;;;;;;;;;12.25;10.00;;;;;;;;4982931;28;61912;-81
2021/12/06 08:43:38;;;;;;;;;13.75;10.00;;;;;;;;4982195;28;61947;-80
2021/12/06 08:46:08;;;;;;;;;10.00;8.00;;;;;;;;4982230;28;61768;-80
2021/12/06 08:48:36;;;;;;;;;10.25;10.00;;;;;;;;4982000;28;61756;-78
2021/12/06 08:51:05;;;;;;;;;13.25;10.50;;;;;;;;4969628;28;61995;-80
2021/12/06 08:53:30;;;;;;;;;11.00;9.25;;;;;;;;4983508;28;63485;-80
2021/12/06 08:55:56;;;;;;;;;20.50;16.75;;;;;;;;4983713;28;61823;-80
2021/12/06 08:58:21;;;;;;;;;10.50;7.50;;;;;;;;4984267;28;61838;-80
2021/12/06 09:00:46;;;;;;;;;16.33;15.00;;;;;;;;4953228;28;1402599;-79
2021/12/06 09:03:12;;;;;;;;;14.75;8.25;;;;;;;;4983827;28;63350;-79
2021/12/06 09:05:41;;;;;;;;;13.00;10.50;;;;;;;;5002849;28;61821;-80
2021/12/06 09:08:07;;;;;;;;;11.75;11.75;;;;;;;;4985415;28;62216;-80
2021/12/06 09:10:32;;;;;;;;;17.00;11.00;;;;;;;;4985590;28;61988;-80
2021/12/06 09:12:58;;;;;;;;;15.75;13.25;;;;;;;;5002286;28;62754;-80
2021/12/06 09:15:24;;;;;;;;;17.25;12.00;;;;;;;;5002614;28;61784;-80
2021/12/06 09:17:50;;;;;;;;;10.75;8.00;;;;;;;;4984530;28;61910;-80
2021/12/06 09:20:16;;;;;;;;;11.50;10.00;;;;;;;;5003093;28;61903;-80
2021/12/06 09:22:42;;;;;;;;;8.75;7.25;;;;;;;;5002332;28;61927;-79
2021/12/06 09:25:09;;;;;;;;;11.00;9.00;;;;;;;;4984729;28;61737;-79
2021/12/06 09:27:34;;;;;;;;;9.25;8.00;;;;;;;;4984683;28;62045;-81
2021/12/06 09:29:59;;;;;;;;;11.75;7.25;;;;;;;;5002649;28;61894;-79
2021/12/06 09:32:25;;;;;;;;;7.50;6.00;;;;;;;;4984255;28;63650;-80
2021/12/06 09:34:54;;;;;;;;;9.50;7.25;;;;;;;;5002518;28;61741;-80
2021/12/06 09:37:19;;;;;;;;;13.00;8.75;;;;;;;;5002830;28;61913;-80
2021/12/06 09:39:45;;;;;;;;;12.25;12.00;;;;;;;;4984308;28;62003;-80
2021/12/06 09:42:10;;;;;;;;;10.00;8.25;;;;;;;;5001722;28;62088;-80
2021/12/06 09:44:36;;;;;;;;;15.75;10.75;;;;;;;;5002674;28;61909;-79
2021/12/06 09:47:01;;;;;;;;;19.75;13.75;;;;;;;;4983992;28;61771;-80
2021/12/06 09:49:26;;;;;;;;;14.25;9.25;;;;;;;;5002414;28;61921;-79
2021/12/06 09:51:57;;;;;;;;;12.00;9.00;;;;;;;;5001744;28;62142;-80
2021/12/06 09:54:23;;;;;;;;;11.25;7.25;;;;;;;;4984679;28;61995;-80
2021/12/06 09:56:49;;;;;;;;;10.75;8.25;;;;;;;;4984439;28;61931;-80
2021/12/06 09:59:18;;;;;;;;;15.25;10.00;;;;;;;;5001929;28;61704;-80
2021/12/06 10:01:48;;;;;;;;;13.25;9.00;;;;;;;;5001264;28;61859;-79
2021/12/06 10:04:15;;;;;;;;;14.00;8.50;;;;;;;;5001631;28;61903;-80
2021/12/06 10:06:41;;;;;;;;;9.00;9.00;;;;;;;;4984129;28;61792;-80
2021/12/06 10:09:07;;;;;;;;;8.75;5.00;;;;;;;;5002159;28;61844;-80
2021/12/06 10:11:33;;;;;;;;;15.25;12.75;;;;;;;;5001431;28;61928;-79
2021/12/06 10:13:59;;;;;;;;;12.50;9.75;;;;;;;;5002113;28;61856;-80
2021/12/06 10:16:24;;;;;;;;;13.25;12.00;;;;;;;;5001486;28;61776;-80
2021/12/06 10:18:50;;;;;;;;;15.25;8.75;;;;;;;;5001947;28;62117;-80
2021/12/06 10:21:16;;;;;;;;;12.00;12.00;;;;;;;;4996079;28;62811;-79
2021/12/06 10:23:43;;;;;;;;;12.00;9.75;;;;;;;;4991887;28;61705;-80
2021/12/06 10:26:09;;;;;;;;;18.00;13.50;;;;;;;;4990691;28;61921;-80
2021/12/06 10:28:36;;;;;;;;;12.25;11.00;;;;;;;;4989937;28;62043;-79
2021/12/06 10:50:11;;;;;;;;;9.00;7.75;;;;;12.47;78.24;101131.81;5129290;27;61881;-78
2021/12/06 10:52:48;;;;;;;;;11.00;8.25;;;;;12.73;77.18;101124.13;5106928;27;62022;-78
2021/12/06 10:55:14;;;;;;;;;14.00;9.25;;;;;12.80;76.59;101115.63;5105701;27;62223;-78
2021/12/06 10:57:47;;;;;;;;;11.00;10.25;;;;;12.87;76.44;101107.09;5097401;27;62731;-78
2021/12/06 11:00:28;;;;;;;;;12.25;10.50;;;;;13.04;76.34;101110.41;5098099;27;61804;-78
2021/12/06 11:02:54;;;;;;;;;16.75;12.75;;;;;13.08;77.24;101118.50;5096494;27;61832;-79
2021/12/06 11:05:25;;;;;;;;;17.75;11.25;;;;;13.23;75.56;101114.69;5098499;27;61800;-79
2021/12/06 11:08:07;;;;;;;;;11.75;11.75;;;;;13.33;75.78;101105.44;5095988;27;64604;-77
2021/12/06 11:10:45;;;;;;;;;20.75;13.25;;;;;13.35;75.66;101109.91;5098118;27;61754;-81
2021/12/06 11:13:12;;;;;;;;;11.50;8.50;;;;;13.38;75.85;101110.03;5105736;27;61816;-78
2021/12/06 11:15:52;;;;;;;;;12.00;9.50;;;;;13.41;75.30;101107.53;5101999;27;62269;-79
2021/12/06 11:18:33;;;;;;;;;10.00;9.00;;;;;13.37;74.45;101107.31;5095932;27;63729;-77
2021/12/06 11:20:59;;;;;;;;;9.75;9.00;;;;;13.34;74.25;101110.75;5105912;27;61778;-76
2021/12/06 11:23:24;;;;;;;;;20.00;18.25;;;;;13.31;74.15;101115.03;5115444;27;61872;-77
2021/12/06 11:25:55;;;;;;;;;14.50;11.00;;;;;13.39;74.10;101116.19;5117734;27;61788;-82
2021/12/06 11:28:30;;;;;;;;;6.75;5.50;;;;;13.52;74.63;101112.28;5117928;27;61870;-80
2021/12/06 11:30:59;;;;;;;;;14.75;11.75;;;;;13.59;73.84;101099.38;5115434;27;61884;-82
2021/12/06 11:33:30;;;;;;;;;10.50;8.75;;;;;13.70;74.03;101094.50;5096237;27;61773;-78
2021/12/06 11:35:57;;;;;;;;;10.00;6.00;;;;;13.78;73.94;101081.59;5097972;27;61735;-82
2021/12/06 11:38:22;;;;;;;;;7.50;7.00;;;;;13.83;73.15;101082.66;5095879;27;61876;-80
2021/12/06 11:40:48;;;;;;;;;13.25;8.50;;;;;13.88;72.17;101065.22;5103382;27;62072;-80
2021/12/06 11:43:17;;;;;;;;;10.75;8.50;;;;;13.88;72.15;101058.25;5113761;27;61959;-80
2021/12/06 11:45:50;;;;;;;;;13.25;9.00;;;;;13.87;71.18;101051.16;5108081;27;61836;-82
2021/12/06 11:48:24;;;;;;;;;12.00;10.50;;;;;13.96;72.68;101050.56;5107392;27;61820;-81
2021/12/06 11:50:52;;;;;;;;;11.50;9.50;;;;;14.10;72.10;101048.44;5101603;27;61770;-85
2021/12/06 11:53:20;;;;;;;;;11.50;9.75;;;;;14.22;72.06;101053.22;5099648;27;62008;-80
2021/12/06 11:56:11;;;;;;;;;11.25;10.50;;;;;14.38;70.47;101052.88;5117129;27;62140;-81
2021/12/06 11:58:44;;;;;;;;;8.75;7.00;;;;;14.30;70.06;101049.97;5090315;27;63316;-79
2021/12/06 12:01:22;;;;;;;;;9.75;7.25;;;;;14.31;69.70;101048.25;5096659;27;62048;-81
2021/12/06 12:03:55;;;;;;;;;6.75;5.00;;;;;14.83;69.49;101043.78;5097826;27;61991;-80
2021/12/06 12:06:23;;;;;;;;;6.50;6.00;;;;;15.22;68.58;101037.91;5099840;27;61999;-80
2021/12/06 12:09:01;;;;;;;;;10.25;8.75;;;;;15.23;66.21;101047.63;5099894;27;64750;-80
2021/12/06 12:11:27;;;;;;;;;7.75;6.75;;;;;15.17;67.39;101044.78;5091197;27;62044;-79
2021/12/06 12:13:53;;;;;;;;;13.00;8.50;;;;;14.90;67.25;101040.47;5091265;27;62000;-79
2021/12/06 12:16:21;;;;;;;;;5.50;4.00;;;;;14.64;67.48;101051.13;5094534;27;62200;-80
2021/12/06 12:18:47;;;;;;;;;6.00;6.00;;;;;14.54;68.30;101043.72;5090939;27;63748;-81
2021/12/06 12:21:14;;;;;;;;;9.75;6.00;;;;;14.52;69.00;101043.69;5094057;27;61838;-80
2021/12/06 12:23:42;;;;;;;;;7.50;6.50;;;;;14.24;67.88;101036.56;5091840;27;61888;-80
2021/12/06 12:26:14;;;;;;;;;10.75;9.25;;;;;14.38;69.60;101036.16;5090212;27;62182;-80
2021/12/06 12:28:59;;;;;;;;;7.75;5.00;;;;;14.49;69.29;101027.72;5093500;27;62747;-79
2021/12/06 12:31:26;;;;;;;;;8.00;5.00;;;;;14.51;68.40;101027.78;5098873;27;62145;-79
2021/12/06 12:33:55;;;;;;;;;5.75;5.00;;;;;14.57;68.80;101024.44;5092068;27;61948;-79
2021/12/06 12:36:23;;;;;;;;;5.25;5.25;;;;;14.68;68.16;101036.28;5092907;27;62074;-80
2021/12/06 12:38:54;;;;;;;;;6.50;5.50;;;;;14.64;67.70;101021.19;5100940;27;64457;-80
2021/12/06 12:41:22;;;;;;;;;6.25;4.50;;;;;14.70;67.61;101002.88;5110280;27;61800;-79
2021/12/06 12:43:53;;;;;;;;;6.50;6.50;;;;;14.93;67.67;100983.31;5083199;27;61764;-80
2021/12/06 12:46:22;;;;;;;;;6.50;6.50;;;;;14.97;67.46;100978.13;5086341;27;61766;-80
2021/12/06 12:48:55;;;;;;;;;10.50;8.25;;;;;15.16;67.86;100971.63;5088903;27;62926;-80
2021/12/06 12:51:30;;;;;;;;;4.00;4.00;;;;;15.41;65.97;100973.22;5082765;27;62227;-80
2021/12/06 12:54:19;;;;;;;;;6.00;4.00;;;;;15.34;66.22;100970.41;5083012;27;62092;-80
2021/12/06 12:56:57;;;;;;;;;5.25;5.00;;;;;15.35;65.11;100966.00;5081495;27;61829;-80
2021/12/06 12:59:26;;;;;;;;;8.75;6.00;;;;;15.07;64.68;100956.41;5085155;27;63251;-80
2021/12/06 13:02:24;;;;;;;;;6.00;6.00;;;;;15.10;66.48;100952.09;5082212;27;61961;-80
2021/12/06 13:04:59;;;;;;;;;5.25;5.25;;;;;14.93;65.26;100940.13;5080852;27;61869;-79
2021/12/06 13:07:29;;;;;;;;;6.75;5.50;;;;;14.70;66.29;100927.13;5082768;27;61943;-79
2021/12/06 13:09:57;;;;;;;;;7.25;6.50;;;;;14.72;66.75;100913.97;5080567;28;64994;-80
2021/12/06 13:12:27;;;;;;;;;5.00;3.00;;;;;14.68;66.85;100912.97;5082352;27;61913;-78
2021/12/06 13:14:59;;;;;;;;;5.25;5.25;;;;;14.74;66.20;100901.72;5081129;27;61806;-78
2021/12/06 13:17:34;;;;;;;;;5.00;3.00;;;;;14.82;66.04;100894.00;5083018;28;62215;-78
2021/12/06 13:20:12;;;;;;;;;7.00;5.25;;;;;14.82;65.15;100886.94;5080792;28;64723;-78
2021/12/06 13:22:48;;;;;;;;;5.25;5.25;;;;;14.77;65.56;100877.13;5083377;27;61664;-80
2021/12/06 13:25:25;;;;;;;;;6.00;3.75;;;;;14.62;65.81;100874.94;5082112;27;61884;-80
2021/12/06 13:28:06;;;;;;;;;9.00;4.00;;;;;14.46;66.41;100874.44;5082299;27;61863;-78
2021/12/06 13:30:41;;;;;;;;;5.00;4.00;;;;;14.42;67.84;100863.75;5081290;28;63946;-78
2021/12/06 13:33:13;;;;;;;;;7.75;6.00;;;;;14.36;66.87;100845.06;5080934;27;61786;-78
2021/12/06 13:35:46;;;;;;;;;11.25;6.50;;;;;14.34;67.59;100847.66;5082650;27;61883;-78
2021/12/06 13:38:23;;;;;;;;;9.50;6.75;;;;;14.27;69.00;100845.69;5082677;27;61936;-88
2021/12/06 13:40:57;;;;;;;;;6.00;5.75;;;;;14.13;67.35;100824.13;5083161;27;64021;-76
2021/12/06 13:43:36;;;;;;;;;3.50;3.50;;;;;13.99;67.20;100818.44;5082614;27;61837;-76
2021/12/06 13:46:08;;;;;;;;;5.00;3.00;;;;;13.99;67.36;100823.72;5081587;28;61879;-78
2021/12/06 13:48:45;;;;;;;;;5.50;5.00;;;;;13.94;66.53;100840.25;5083079;27;61928;-77
2021/12/06 13:51:29;;;;;;;;;8.75;5.25;;;;;13.92;66.65;100821.72;5080875;27;63271;-77
2021/12/06 13:53:58;;;;;;;;;1.00;1.00;;;;;13.87;66.06;100821.59;5081358;27;61890;-78
2021/12/06 13:56:50;;;;;;;;;8.50;5.00;;;;;13.85;65.80;100835.59;5080664;28;61954;-80
2021/12/06 13:59:21;;;;;;;;;8.50;3.75;;;;;13.82;65.96;100825.84;5082908;28;61830;-81
2021/12/06 14:01:48;;;;;;;;;0.00;0.00;;;;;13.81;65.71;100828.41;5080914;28;63697;-83
2021/12/06 14:04:19;;;;;;;;;3.50;1.75;;;;;13.76;66.13;100820.34;5080393;27;61775;-78
2021/12/06 14:06:57;;;;;;;;;4.00;4.00;;;;;13.74;65.51;100816.78;5082424;27;61983;-79
2021/12/06 14:09:32;;;;;;;;;1.75;1.75;;;;;13.66;66.19;100827.06;5080752;27;62217;-83
2021/12/06 14:12:02;;;;;;;;;4.00;2.25;;;;;13.41;64.91;100833.28;5081619;27;63256;-79
2021/12/06 14:14:31;;;;;;;;;2.00;2.00;;;;;13.48;65.45;100827.38;5088931;27;62112;-78